createdAt,value
2017-12-17T00:02:05.607Z,13.07
2017-12-17T00:04:32.050Z,10.40
2017-12-17T00:06:58.465Z,10.57
2017-12-17T00:09:24.870Z,9.73
2017-12-17T00:11:51.311Z,11.13
2017-12-17T00:14:17.746Z,10.27
2017-12-17T00:16:44.177Z,11.40
2017-12-17T00:19:10.637Z,12.10
2017-12-17T00:21:37.074Z,13.80
2017-12-17T00:24:04.227Z,14.00
2017-12-17T00:26:30.657Z,13.10
2017-12-17T00:28:57.048Z,12.30
2017-12-17T00:31:23.712Z,15.70
2017-12-17T00:33:50.845Z,14.70
2017-12-17T00:36:17.256Z,15.87
2017-12-17T00:38:43.764Z,16.40
2017-12-17T00:41:10.107Z,17.23
2017-12-17T00:43:37.372Z,17.30
2017-12-17T00:46:04.382Z,19.07
2017-12-17T00:48:30.856Z,19.10
2017-12-17T00:50:57.997Z,19.63
2017-12-17T00:53:24.377Z,19.07
2017-12-17T00:55:51.500Z,17.50
2017-12-17T00:58:17.900Z,17.60
2017-12-17T01:00:44.250Z,20.73
2017-12-17T01:03:14.580Z,20.00
2017-12-17T01:05:47.075Z,18.07
2017-12-17T01:08:13.487Z,17.47
2017-12-17T01:10:40.024Z,18.87
2017-12-17T01:13:06.951Z,17.20
2017-12-17T01:15:34.103Z,18.20
2017-12-17T01:18:00.475Z,16.83
2017-12-17T01:20:26.843Z,17.50
2017-12-17T01:22:53.191Z,18.30
2017-12-17T01:25:20.323Z,17.77
2017-12-17T01:27:46.695Z,15.03
2017-12-17T01:30:13.821Z,16.53
2017-12-17T01:32:40.170Z,17.63
2017-12-17T01:35:07.052Z,19.10
2017-12-17T01:37:33.591Z,16.90
2017-12-17T01:39:59.966Z,15.80
2017-12-17T01:42:26.351Z,14.60
2017-12-17T01:44:52.713Z,17.37
2017-12-17T01:47:19.080Z,14.13
2017-12-17T01:49:45.652Z,14.43
2017-12-17T01:52:11.999Z,14.03
2017-12-17T01:54:38.420Z,14.00
2017-12-17T01:57:06.238Z,25.17
2017-12-17T01:59:32.687Z,17.83
2017-12-17T02:01:59.091Z,16.67
2017-12-17T02:04:26.303Z,14.97
2017-12-17T02:06:52.715Z,25.37
2017-12-17T02:09:19.137Z,15.87
2017-12-17T02:11:45.585Z,14.27
2017-12-17T02:14:12.092Z,13.93
2017-12-17T02:16:39.248Z,14.10
2017-12-17T02:19:05.704Z,12.60
2017-12-17T02:21:32.087Z,12.50
2017-12-17T02:23:58.503Z,12.83
2017-12-17T02:26:25.610Z,13.57
2017-12-17T02:28:52.012Z,11.67
2017-12-17T02:31:19.489Z,13.37
2017-12-17T02:33:46.640Z,12.77
2017-12-17T02:36:13.756Z,11.80
2017-12-17T02:38:40.127Z,10.73
2017-12-17T02:41:07.072Z,11.57
2017-12-17T02:43:34.230Z,10.83
2017-12-17T02:46:00.616Z,12.07
2017-12-17T02:48:27.745Z,12.87
2017-12-17T02:50:54.900Z,11.20
2017-12-17T02:53:22.072Z,13.27
2017-12-17T02:55:48.463Z,11.97
2017-12-17T02:58:14.871Z,12.00
2017-12-17T03:00:41.284Z,12.37
2017-12-17T03:03:08.025Z,13.10
2017-12-17T03:05:34.399Z,12.77
2017-12-17T03:08:00.827Z,13.53
2017-12-17T03:10:27.220Z,15.27
2017-12-17T03:12:54.352Z,14.57
2017-12-17T03:15:20.724Z,14.77
2017-12-17T03:17:47.143Z,13.63
2017-12-17T03:20:13.880Z,14.53
2017-12-17T03:22:40.431Z,14.27
2017-12-17T03:25:08.194Z,14.87
2017-12-17T03:27:34.592Z,15.00
2017-12-17T03:30:01.903Z,14.00
2017-12-17T03:32:28.267Z,15.63
2017-12-17T03:34:54.636Z,15.97
2017-12-17T03:37:21.851Z,17.80
2017-12-17T03:39:48.219Z,17.60
2017-12-17T03:42:14.767Z,16.07
2017-12-17T03:44:41.215Z,16.33
2017-12-17T03:47:08.142Z,15.90
2017-12-17T03:49:34.559Z,16.67
2017-12-17T03:52:00.919Z,18.03
2017-12-17T03:54:27.913Z,20.60
2017-12-17T03:56:55.035Z,20.47
2017-12-17T03:59:21.645Z,18.50
2017-12-17T04:01:48.747Z,14.57
2017-12-17T04:04:15.131Z,16.70
2017-12-17T04:06:41.750Z,19.70
2017-12-17T04:09:08.502Z,17.60
2017-12-17T04:11:34.883Z,19.30
2017-12-17T04:14:01.239Z,17.57
2017-12-17T04:16:27.870Z,16.20
2017-12-17T04:18:54.983Z,18.20
2017-12-17T04:21:21.547Z,18.17
2017-12-17T04:23:47.927Z,18.10
2017-12-17T04:26:15.132Z,18.70
2017-12-17T04:28:41.574Z,18.17
2017-12-17T04:31:08.555Z,17.57
2017-12-17T04:33:34.959Z,19.80
2017-12-17T04:36:01.446Z,20.03
2017-12-17T04:38:28.866Z,19.00
2017-12-17T04:40:55.994Z,18.40
2017-12-17T04:43:22.383Z,16.27
2017-12-17T04:45:48.810Z,16.80
2017-12-17T04:48:15.978Z,16.60
2017-12-17T04:50:43.152Z,16.40
2017-12-17T04:53:09.558Z,14.97
2017-12-17T04:55:35.977Z,15.30
2017-12-17T04:58:02.629Z,16.60
2017-12-17T05:00:29.864Z,17.90
2017-12-17T05:02:56.256Z,16.70
2017-12-17T05:05:22.635Z,17.83
2017-12-17T05:07:49.040Z,15.80
2017-12-17T05:10:15.444Z,17.60
2017-12-17T05:12:43.417Z,15.87
2017-12-17T05:15:09.835Z,17.90
2017-12-17T05:17:36.174Z,18.70
2017-12-17T05:20:03.909Z,19.93
2017-12-17T05:22:30.302Z,17.57
2017-12-17T05:24:56.695Z,19.10
2017-12-17T05:27:23.121Z,18.80
2017-12-17T05:29:49.554Z,20.97
2017-12-17T05:32:16.008Z,20.07
2017-12-17T05:34:42.451Z,19.20
2017-12-17T05:37:09.534Z,20.30
2017-12-17T05:39:36.078Z,19.23
2017-12-17T05:42:03.044Z,21.33
2017-12-17T05:44:30.290Z,20.00
2017-12-17T05:46:56.712Z,24.87
2017-12-17T05:49:23.371Z,21.77
2017-12-17T05:51:49.896Z,24.27
2017-12-17T05:54:17.033Z,23.40
2017-12-17T05:56:43.495Z,27.00
2017-12-17T05:59:10.262Z,25.63
2017-12-17T06:01:37.403Z,24.47
2017-12-17T06:04:05.243Z,25.27
2017-12-17T06:06:31.743Z,23.63
2017-12-17T06:08:58.871Z,21.40
2017-12-17T06:11:25.271Z,23.63
2017-12-17T06:13:51.687Z,23.87
2017-12-17T06:16:18.121Z,26.03
2017-12-17T06:18:45.265Z,24.20
2017-12-17T06:21:12.791Z,25.17
2017-12-17T06:23:39.247Z,28.83
2017-12-17T06:26:06.659Z,28.70
2017-12-17T06:28:33.087Z,27.00
2017-12-17T06:30:59.463Z,26.77
2017-12-17T06:33:26.566Z,24.97
2017-12-17T06:35:52.943Z,24.83
2017-12-17T06:38:19.451Z,24.90
2017-12-17T06:40:45.836Z,24.83
2017-12-17T06:43:12.235Z,26.27
2017-12-17T06:45:38.611Z,26.67
2017-12-17T06:48:05.758Z,24.27
2017-12-17T06:50:33.007Z,23.37
2017-12-17T06:52:59.400Z,25.10
2017-12-17T06:55:26.723Z,24.70
2017-12-17T06:57:54.166Z,26.57
2017-12-17T07:00:21.452Z,28.30
2017-12-17T07:02:48.068Z,29.97
2017-12-17T07:05:15.162Z,30.57
2017-12-17T07:07:41.765Z,35.10
2017-12-17T07:10:08.340Z,31.87
2017-12-17T07:12:34.901Z,32.47
2017-12-17T07:15:01.444Z,29.60
2017-12-17T07:17:29.602Z,32.83
2017-12-17T07:19:57.155Z,35.53
2017-12-17T07:22:23.623Z,31.07
2017-12-17T07:24:50.223Z,32.87
2017-12-17T07:27:16.762Z,33.63
2017-12-17T07:29:43.315Z,33.60
2017-12-17T07:32:12.251Z,31.57
2017-12-17T07:34:38.763Z,32.70
2017-12-17T07:37:05.261Z,32.30
2017-12-17T07:39:31.863Z,33.17
2017-12-17T07:41:59.079Z,31.93
2017-12-17T07:44:27.440Z,35.10
2017-12-17T07:46:54.873Z,33.83
2017-12-17T07:49:25.118Z,32.00
2017-12-17T07:51:53.107Z,29.60
2017-12-17T07:54:20.564Z,30.73
2017-12-17T07:56:47.952Z,30.17
2017-12-17T07:59:14.384Z,31.57
2017-12-17T08:01:45.405Z,28.80
2017-12-17T08:04:13.111Z,32.40
2017-12-17T08:06:40.491Z,27.90
2017-12-17T08:09:09.662Z,28.17
2017-12-17T08:11:36.169Z,30.37
2017-12-17T08:14:07.149Z,30.07
2017-12-17T08:16:34.472Z,31.63
2017-12-17T08:19:00.947Z,31.87
2017-12-17T08:21:27.403Z,29.73
2017-12-17T08:23:54.652Z,26.60
2017-12-17T08:26:21.200Z,27.30
2017-12-17T08:28:49.947Z,28.70
2017-12-17T08:31:16.598Z,27.67
2017-12-17T08:33:45.215Z,28.23
2017-12-17T08:36:13.977Z,30.20
2017-12-17T08:38:42.100Z,30.53
2017-12-17T08:43:44.257Z,26.70
2017-12-17T08:46:10.767Z,26.10
2017-12-17T08:48:37.311Z,26.77
2017-12-17T08:51:05.997Z,25.77
2017-12-17T08:53:34.782Z,27.00
2017-12-17T08:56:02.752Z,27.33
2017-12-17T08:58:30.157Z,23.43
2017-12-17T09:00:56.655Z,25.00
2017-12-17T09:03:23.155Z,22.87
2017-12-17T09:05:52.404Z,24.07
2017-12-17T09:08:18.869Z,24.70
2017-12-17T09:10:45.347Z,24.70
2017-12-17T09:13:12.098Z,23.27
2017-12-17T09:15:39.957Z,24.23
2017-12-17T09:18:07.070Z,25.73
2017-12-17T09:20:33.695Z,22.80
2017-12-17T09:23:01.251Z,27.50
2017-12-17T09:25:27.832Z,23.07
2017-12-17T09:27:54.379Z,22.50
2017-12-17T09:30:20.776Z,20.93
2017-12-17T09:32:47.251Z,21.37
2017-12-17T09:35:13.939Z,20.47
2017-12-17T09:37:40.424Z,22.47
2017-12-17T09:40:08.175Z,24.40
2017-12-17T09:42:36.144Z,20.47
2017-12-17T09:45:02.675Z,21.30
2017-12-17T09:47:30.061Z,20.60
2017-12-17T09:49:56.705Z,20.07
2017-12-17T09:52:23.358Z,21.63
2017-12-17T09:54:50.144Z,17.40
2017-12-17T09:57:16.780Z,19.63
2017-12-17T09:59:43.327Z,21.37
2017-12-17T10:02:09.959Z,16.20
2017-12-17T10:04:36.518Z,19.90
2017-12-17T10:07:03.290Z,19.23
2017-12-17T10:09:30.559Z,18.53
2017-12-17T10:11:58.197Z,20.03
2017-12-17T10:14:24.664Z,21.33
2017-12-17T10:16:51.230Z,18.87
2017-12-17T10:19:18.064Z,21.10
2017-12-17T10:21:44.988Z,19.10
2017-12-17T10:24:11.716Z,18.13
2017-12-17T10:26:38.595Z,17.70
2017-12-17T10:29:05.401Z,21.57
2017-12-17T10:31:32.627Z,16.87
2017-12-17T10:33:59.864Z,17.70
2017-12-17T10:36:27.589Z,19.40
2017-12-17T10:38:54.642Z,15.40
2017-12-17T10:41:22.031Z,19.03
2017-12-17T10:43:49.085Z,15.43
2017-12-17T10:46:16.259Z,15.77
2017-12-17T10:48:43.832Z,20.03
2017-12-17T10:51:10.699Z,15.33
2017-12-17T10:53:37.367Z,16.73
2017-12-17T10:56:04.844Z,14.50
2017-12-17T10:58:33.962Z,14.83
2017-12-17T11:01:00.691Z,15.97
2017-12-17T11:03:27.810Z,15.13
2017-12-17T11:05:54.259Z,14.07
2017-12-17T11:08:20.695Z,14.77
2017-12-17T11:10:47.991Z,14.37
2017-12-17T11:13:14.903Z,14.93
2017-12-17T11:15:42.137Z,15.83
2017-12-17T11:18:08.541Z,17.17
2017-12-17T11:20:35.039Z,17.03
2017-12-17T11:23:01.565Z,18.17
2017-12-17T11:25:28.059Z,15.93
2017-12-17T11:27:55.141Z,15.07
2017-12-17T11:30:22.343Z,17.10
2017-12-17T11:32:50.703Z,16.60
2017-12-17T11:35:17.152Z,15.07
2017-12-17T11:37:43.878Z,18.03
2017-12-17T11:40:10.379Z,13.73
2017-12-17T11:42:37.605Z,9.50
2017-12-17T11:45:05.698Z,15.40
2017-12-17T11:47:32.276Z,15.00
2017-12-17T11:49:58.766Z,14.47
2017-12-17T11:52:25.244Z,15.30
2017-12-17T11:54:52.503Z,12.80
2017-12-17T11:57:20.092Z,14.90
2017-12-17T11:59:47.403Z,13.37
2017-12-17T12:02:15.361Z,13.67
2017-12-17T12:04:41.853Z,14.23
2017-12-17T12:07:09.177Z,12.40
2017-12-17T12:09:35.780Z,14.53
2017-12-17T12:12:02.416Z,13.17
2017-12-17T12:14:28.818Z,12.40
2017-12-17T12:16:55.247Z,14.47
2017-12-17T12:19:21.724Z,12.90
2017-12-17T12:21:48.220Z,12.37
2017-12-17T12:24:16.204Z,14.17
2017-12-17T12:26:44.659Z,15.20
2017-12-17T12:29:12.372Z,13.20
2017-12-17T12:31:38.829Z,13.93
2017-12-17T12:34:05.343Z,12.47
2017-12-17T12:36:32.566Z,15.37
2017-12-17T12:38:59.049Z,14.73
2017-12-17T12:41:25.553Z,15.30
2017-12-17T12:43:52.047Z,14.43
2017-12-17T12:46:18.957Z,15.60
2017-12-17T12:48:45.653Z,16.10
2017-12-17T12:51:12.223Z,16.20
2017-12-17T12:53:38.800Z,16.63
2017-12-17T12:56:05.350Z,16.83
2017-12-17T12:58:31.914Z,18.90
2017-12-17T13:00:58.360Z,20.30
2017-12-17T13:03:24.916Z,16.20
2017-12-17T13:05:51.403Z,18.73
2017-12-17T13:08:17.903Z,16.33
2017-12-17T13:10:45.277Z,15.30
2017-12-17T13:13:12.496Z,15.30
2017-12-17T13:15:38.963Z,17.50
2017-12-17T13:18:06.080Z,20.03
2017-12-17T13:20:32.545Z,18.47
2017-12-17T13:22:59.104Z,18.90
2017-12-17T13:25:25.562Z,17.33
2017-12-17T13:27:52.072Z,16.90
2017-12-17T13:30:19.280Z,18.70
2017-12-17T13:32:45.808Z,19.03
2017-12-17T13:35:12.274Z,17.83
2017-12-17T13:37:39.535Z,19.53
2017-12-17T13:40:07.548Z,17.80
2017-12-17T13:42:34.287Z,19.97
2017-12-17T13:45:00.804Z,16.43
2017-12-17T13:47:27.464Z,17.40
2017-12-17T13:49:54.111Z,18.80
2017-12-17T13:52:20.645Z,19.13
2017-12-17T13:54:47.937Z,19.77
2017-12-17T13:57:14.533Z,19.57
2017-12-17T13:59:41.063Z,15.57
2017-12-17T14:02:08.399Z,17.93
2017-12-17T14:04:34.909Z,18.97
2017-12-17T14:07:02.350Z,17.33
2017-12-17T14:09:29.133Z,14.60
2017-12-17T14:11:56.550Z,15.47
2017-12-17T14:14:24.335Z,19.47
2017-12-17T14:16:51.739Z,15.37
2017-12-17T14:19:18.209Z,18.77
2017-12-17T14:21:44.691Z,14.97
2017-12-17T14:24:11.191Z,16.67
2017-12-17T14:26:37.738Z,15.83
2017-12-17T14:29:04.940Z,16.57
2017-12-17T14:31:31.533Z,17.80
2017-12-17T14:33:58.037Z,16.30
2017-12-17T14:36:24.600Z,16.80
2017-12-17T14:38:59.203Z,16.87
2017-12-17T14:41:25.681Z,17.33
2017-12-17T14:43:52.152Z,13.27
2017-12-17T14:46:19.424Z,16.57
2017-12-17T14:48:46.690Z,18.17
2017-12-17T14:51:13.357Z,17.07
2017-12-17T14:53:39.896Z,17.73
2017-12-17T14:56:07.175Z,21.67
2017-12-17T14:58:33.809Z,16.77
2017-12-17T15:01:00.296Z,18.10
2017-12-17T15:03:27.280Z,17.20
2017-12-17T15:05:53.784Z,19.80
2017-12-17T15:08:20.312Z,17.00
2017-12-17T15:10:46.824Z,17.70
2017-12-17T15:13:14.018Z,18.20
2017-12-17T15:15:40.565Z,16.40
2017-12-17T15:18:06.988Z,16.37
2017-12-17T15:20:40.321Z,19.77
2017-12-17T15:23:06.804Z,18.10
2017-12-17T15:25:33.379Z,18.40
2017-12-17T15:28:00.202Z,20.00
2017-12-17T15:30:27.012Z,19.80
2017-12-17T15:32:53.595Z,20.40
2017-12-17T15:35:21.043Z,20.53
2017-12-17T15:37:47.635Z,18.10
2017-12-17T15:40:21.360Z,19.30
2017-12-17T15:42:48.055Z,22.30
2017-12-17T15:45:15.343Z,21.83
2017-12-17T15:47:42.092Z,24.17
2017-12-17T15:50:09.384Z,18.93
2017-12-17T15:52:36.040Z,18.73
2017-12-17T15:55:02.917Z,19.67
2017-12-17T15:57:29.495Z,19.17
2017-12-17T15:59:55.902Z,17.27
2017-12-17T16:02:22.451Z,19.30
2017-12-17T16:04:50.589Z,19.17
2017-12-17T16:07:17.109Z,18.17
2017-12-17T16:09:43.979Z,18.17
2017-12-17T16:12:11.107Z,19.20
2017-12-17T16:14:38.339Z,19.97
2017-12-17T16:17:05.420Z,18.57
2017-12-17T16:19:31.967Z,20.83
2017-12-17T16:21:58.328Z,23.37
2017-12-17T16:24:26.231Z,21.10
2017-12-17T16:26:52.648Z,21.97
2017-12-17T16:29:19.837Z,22.13
2017-12-17T16:31:47.029Z,22.80
2017-12-17T16:34:13.387Z,22.70
2017-12-17T16:36:39.810Z,22.07
2017-12-17T16:39:07.424Z,17.40
2017-12-17T16:41:33.938Z,24.27
2017-12-17T16:44:00.321Z,22.07
2017-12-17T16:46:26.695Z,22.73
2017-12-17T16:48:53.836Z,25.13
2017-12-17T16:51:20.286Z,24.53
2017-12-17T16:53:47.465Z,28.50
2017-12-17T16:56:14.680Z,21.17
2017-12-17T16:58:41.179Z,22.07
2017-12-17T17:01:08.198Z,21.37
2017-12-17T17:03:34.648Z,21.07
2017-12-17T17:06:01.019Z,21.20
2017-12-17T17:08:27.566Z,19.13
2017-12-17T17:10:53.965Z,18.57
2017-12-17T17:13:20.446Z,17.50
2017-12-17T17:15:46.917Z,20.90
2017-12-17T17:18:13.379Z,18.67
2017-12-17T17:20:39.851Z,18.63
2017-12-17T17:23:07.736Z,21.10
2017-12-17T17:25:34.221Z,21.53
2017-12-17T17:28:00.707Z,20.43
2017-12-17T17:30:27.208Z,19.33
2017-12-17T17:32:54.391Z,20.67
2017-12-17T17:35:20.839Z,19.17
2017-12-17T17:37:47.247Z,22.17
2017-12-17T17:40:13.648Z,21.80
2017-12-17T17:42:41.574Z,19.80
2017-12-17T17:45:09.121Z,20.00
2017-12-17T17:47:35.533Z,21.70
2017-12-17T17:50:02.143Z,19.67
2017-12-17T17:52:28.604Z,18.87
2017-12-17T17:54:55.001Z,16.70
2017-12-17T17:57:21.408Z,17.70
2017-12-17T17:59:47.859Z,18.00
2017-12-17T18:02:14.275Z,14.83
2017-12-17T18:04:40.724Z,16.13
2017-12-17T18:07:07.315Z,16.20
2017-12-17T18:09:33.791Z,16.00
2017-12-17T18:12:00.995Z,17.30
2017-12-17T18:14:27.485Z,17.47
2017-12-17T18:16:53.985Z,15.83
2017-12-17T18:19:20.390Z,16.30
2017-12-17T18:21:46.856Z,15.80
2017-12-17T18:24:13.282Z,15.13
2017-12-17T18:26:41.472Z,18.23
2017-12-17T18:29:09.042Z,14.73
2017-12-17T18:31:35.443Z,14.97
2017-12-17T18:34:02.121Z,15.03
2017-12-17T18:36:28.515Z,16.87
2017-12-17T18:38:54.997Z,17.23
2017-12-17T18:41:21.435Z,16.30
2017-12-17T18:43:49.375Z,15.67
2017-12-17T18:46:15.780Z,15.57
2017-12-17T18:48:42.975Z,16.57
2017-12-17T18:51:10.068Z,13.50
2017-12-17T18:53:36.530Z,14.97
2017-12-17T18:56:03.908Z,14.83
2017-12-17T18:58:30.346Z,14.13
2017-12-17T19:00:56.821Z,13.60
2017-12-17T19:03:23.245Z,14.63
2017-12-17T19:05:49.738Z,13.70
2017-12-17T19:08:16.130Z,14.00
2017-12-17T19:10:43.342Z,12.30
2017-12-17T19:13:09.752Z,13.20
2017-12-17T19:15:36.946Z,15.33
2017-12-17T19:18:04.786Z,14.17
2017-12-17T19:20:32.013Z,15.33
2017-12-17T19:22:58.422Z,12.63
2017-12-17T19:25:24.855Z,7.90
2017-12-17T19:27:52.294Z,13.03
2017-12-17T19:30:18.727Z,13.93
2017-12-17T19:32:45.181Z,12.80
2017-12-17T19:35:11.618Z,13.87
2017-12-17T19:37:38.031Z,13.63
2017-12-17T19:40:05.863Z,13.47
2017-12-17T19:42:33.298Z,12.33
2017-12-17T19:44:59.685Z,13.90
2017-12-17T19:47:26.859Z,11.90
2017-12-17T19:49:53.499Z,12.70
2017-12-17T19:52:19.973Z,12.43
2017-12-17T19:54:47.187Z,10.43
2017-12-17T19:57:13.625Z,12.90
2017-12-17T19:59:39.955Z,11.23
2017-12-17T20:02:06.736Z,11.90
2017-12-17T20:04:33.918Z,11.37
2017-12-17T20:07:01.110Z,11.90
2017-12-17T20:09:27.562Z,13.07
2017-12-17T20:11:54.002Z,10.10
2017-12-17T20:14:20.535Z,10.10
2017-12-17T20:16:46.995Z,10.57
2017-12-17T20:19:13.434Z,9.47
2017-12-17T20:21:40.895Z,9.70
2017-12-17T20:24:08.531Z,11.23
2017-12-17T20:26:35.754Z,10.63
2017-12-17T20:29:02.547Z,10.90
2017-12-17T20:31:29.073Z,11.10
2017-12-17T20:33:55.530Z,14.70
2017-12-17T20:36:22.034Z,10.07
2017-12-17T20:38:49.186Z,8.93
2017-12-17T20:41:15.603Z,8.20
2017-12-17T20:43:42.059Z,8.50
2017-12-17T20:46:08.714Z,8.70
2017-12-17T20:48:35.266Z,8.00
2017-12-17T20:51:01.726Z,7.47
2017-12-17T20:53:28.883Z,8.00
2017-12-17T20:55:55.308Z,6.93
2017-12-17T20:58:21.767Z,5.43
2017-12-17T21:00:48.207Z,6.63
2017-12-17T21:03:14.662Z,7.03
2017-12-17T21:05:41.112Z,6.37
2017-12-17T21:08:08.432Z,5.50
2017-12-17T21:10:35.726Z,6.80
2017-12-17T21:13:03.371Z,6.97
2017-12-17T21:15:30.651Z,5.97
2017-12-17T21:17:57.119Z,6.70
2017-12-17T21:20:24.256Z,6.83
2017-12-17T21:22:50.707Z,5.53
2017-12-17T21:25:17.936Z,5.07
2017-12-17T21:27:45.851Z,5.70
2017-12-17T21:30:12.371Z,4.00
2017-12-17T21:32:39.743Z,5.30
2017-12-17T21:35:06.803Z,5.33
2017-12-17T21:37:33.994Z,4.83
2017-12-17T21:40:01.163Z,5.00
2017-12-17T21:42:28.402Z,4.87
2017-12-17T21:44:54.894Z,4.83
2017-12-17T21:47:22.092Z,5.23
2017-12-17T21:49:48.514Z,5.00
2017-12-17T21:52:14.971Z,3.70
2017-12-17T21:54:41.435Z,4.87
2017-12-17T21:57:07.870Z,4.63
2017-12-17T21:59:34.304Z,4.30
2017-12-17T22:02:00.853Z,5.73
2017-12-17T22:04:27.269Z,5.30
2017-12-17T22:06:54.464Z,5.33
2017-12-17T22:09:20.955Z,3.83
2017-12-17T22:11:48.168Z,5.37
2017-12-17T22:14:14.601Z,5.57
2017-12-17T22:16:41.066Z,5.77
2017-12-17T22:19:07.934Z,5.67
2017-12-17T22:21:34.350Z,5.80
2017-12-17T22:24:00.830Z,6.77
2017-12-17T22:26:27.231Z,6.13
2017-12-17T22:28:53.634Z,6.73
2017-12-17T22:31:20.886Z,5.47
2017-12-17T22:33:47.302Z,8.90
2017-12-17T22:36:13.734Z,5.30
2017-12-17T22:38:40.126Z,5.80
2017-12-17T22:41:07.335Z,5.10
2017-12-17T22:43:33.802Z,6.47
2017-12-17T22:46:00.262Z,5.00
2017-12-17T22:48:26.699Z,4.50
2017-12-17T22:50:53.267Z,5.20
2017-12-17T22:53:19.707Z,5.50
2017-12-17T22:55:46.937Z,6.17
2017-12-17T22:58:13.397Z,5.73
2017-12-17T23:00:39.900Z,5.33
2017-12-17T23:03:07.936Z,5.60
2017-12-17T23:05:34.354Z,5.40
2017-12-17T23:08:00.821Z,4.33
2017-12-17T23:10:27.357Z,3.67
2017-12-17T23:12:53.811Z,3.93
2017-12-17T23:15:20.185Z,4.87
2017-12-17T23:17:46.536Z,4.87
2017-12-17T23:20:13.692Z,4.90
2017-12-17T23:22:40.829Z,3.47
2017-12-17T23:25:07.785Z,4.80
2017-12-17T23:27:34.267Z,4.00
2017-12-17T23:30:00.599Z,4.17
2017-12-17T23:32:26.943Z,4.13
2017-12-17T23:34:53.703Z,4.27
2017-12-17T23:37:20.075Z,5.20
2017-12-17T23:39:46.471Z,5.23
2017-12-17T23:42:12.879Z,3.67
2017-12-17T23:44:39.251Z,5.37
2017-12-17T23:47:05.587Z,6.00
2017-12-17T23:49:31.978Z,4.57
2017-12-17T23:51:59.159Z,4.60
2017-12-17T23:54:25.647Z,5.00
2017-12-17T23:56:52.032Z,4.97
2017-12-17T23:59:19.370Z,3.33
